createdAt,value
2017-12-16T00:01:06.784Z,2.60
2017-12-16T00:03:35.092Z,2.60
2017-12-16T00:06:02.612Z,2.60
2017-12-16T00:08:30.133Z,2.60
2017-12-16T00:10:58.438Z,2.30
2017-12-16T00:13:25.959Z,2.30
2017-12-16T00:15:54.492Z,2.30
2017-12-16T00:18:22.036Z,2.30
2017-12-16T00:20:49.552Z,2.40
2017-12-16T00:23:17.839Z,2.60
2017-12-16T00:25:46.143Z,2.40
2017-12-16T00:28:13.660Z,2.40
2017-12-16T00:30:41.180Z,2.40
2017-12-16T00:33:08.725Z,2.40
2017-12-16T00:35:36.245Z,2.40
2017-12-16T00:38:04.531Z,2.40
2017-12-16T00:40:32.082Z,2.40
2017-12-16T00:43:00.668Z,2.40
2017-12-16T00:45:28.952Z,2.40
2017-12-16T00:47:56.496Z,2.40
2017-12-16T00:50:24.784Z,2.50
2017-12-16T00:52:52.304Z,2.50
2017-12-16T00:55:19.844Z,2.50
2017-12-16T00:57:47.360Z,2.50
2017-12-16T01:00:15.636Z,2.50
2017-12-16T01:02:43.176Z,2.50
2017-12-16T01:05:11.463Z,2.60
2017-12-16T01:07:39.755Z,2.60
2017-12-16T01:10:07.308Z,2.50
2017-12-16T01:12:34.835Z,2.50
2017-12-16T01:15:02.353Z,2.60
2017-12-16T01:17:29.926Z,2.50
2017-12-16T01:19:57.448Z,2.50
2017-12-16T01:22:25.005Z,2.50
2017-12-16T01:24:52.803Z,2.40
2017-12-16T01:27:21.083Z,2.40
2017-12-16T01:29:48.599Z,2.40
2017-12-16T01:32:16.136Z,2.50
2017-12-16T01:34:56.760Z,2.50
2017-12-16T01:37:36.140Z,2.50
2017-12-16T01:40:04.420Z,2.40
2017-12-16T01:42:32.956Z,2.40
2017-12-16T01:45:00.503Z,2.40
2017-12-16T01:47:28.020Z,2.50
2017-12-16T01:49:56.338Z,2.40
2017-12-16T01:52:23.877Z,2.40
2017-12-16T01:54:51.418Z,2.40
2017-12-16T01:57:19.716Z,2.40
2017-12-16T01:59:47.284Z,2.40
2017-12-16T02:02:14.863Z,2.40
2017-12-16T02:04:42.396Z,2.40
2017-12-16T02:07:09.948Z,2.50
2017-12-16T02:09:37.468Z,2.50
2017-12-16T02:12:05.031Z,2.50
2017-12-16T02:14:32.864Z,2.50
2017-12-16T02:17:00.391Z,2.50
2017-12-16T02:19:27.931Z,2.50
2017-12-16T02:21:56.292Z,2.40
2017-12-16T02:24:23.816Z,2.40
2017-12-16T02:26:51.348Z,2.40
2017-12-16T02:29:18.899Z,2.40
2017-12-16T02:31:46.436Z,2.50
2017-12-16T02:34:14.748Z,2.50
2017-12-16T02:36:42.313Z,2.50
2017-12-16T02:39:09.836Z,2.50
2017-12-16T02:41:38.113Z,2.50
2017-12-16T02:44:06.444Z,2.50
2017-12-16T02:46:33.996Z,2.50
2017-12-16T02:49:02.291Z,2.50
2017-12-16T02:51:30.236Z,2.50
2017-12-16T02:53:57.752Z,2.50
2017-12-16T02:56:25.305Z,2.50
2017-12-16T02:58:53.611Z,2.50
2017-12-16T03:01:21.152Z,2.50
2017-12-16T03:03:49.436Z,2.50
2017-12-16T03:06:16.977Z,2.50
2017-12-16T03:08:45.259Z,2.50
2017-12-16T03:11:13.551Z,2.50
2017-12-16T03:13:41.087Z,2.50
2017-12-16T03:16:09.376Z,2.60
2017-12-16T03:18:36.896Z,2.50
2017-12-16T03:21:04.442Z,2.50
2017-12-16T03:23:31.967Z,2.60
2017-12-16T03:25:59.487Z,2.60
2017-12-16T03:28:27.027Z,2.60
2017-12-16T03:30:54.552Z,2.60
2017-12-16T03:33:22.072Z,2.60
2017-12-16T03:35:50.375Z,2.60
2017-12-16T03:38:17.896Z,2.60
2017-12-16T03:40:46.200Z,2.40
2017-12-16T03:43:13.760Z,2.40
2017-12-16T03:45:41.275Z,2.40
2017-12-16T03:48:08.797Z,2.50
2017-12-16T03:50:36.339Z,2.30
2017-12-16T03:53:03.856Z,2.30
2017-12-16T03:55:31.383Z,2.30
2017-12-16T03:57:58.925Z,2.30
2017-12-16T04:00:26.444Z,2.30
2017-12-16T04:02:54.732Z,2.10
2017-12-16T04:05:23.040Z,2.20
2017-12-16T04:07:50.551Z,2.20
2017-12-16T04:10:18.068Z,2.20
2017-12-16T04:12:45.600Z,2.10
2017-12-16T04:15:13.117Z,2.20
2017-12-16T04:17:40.632Z,2.20
2017-12-16T04:20:08.173Z,2.20
2017-12-16T04:22:35.687Z,2.30
2017-12-16T04:25:03.204Z,2.30
2017-12-16T04:27:30.735Z,2.30
2017-12-16T04:29:59.021Z,2.50
2017-12-16T04:32:26.538Z,2.50
2017-12-16T04:34:54.071Z,2.50
2017-12-16T04:37:21.588Z,2.50
2017-12-16T04:39:49.871Z,2.60
2017-12-16T04:42:17.419Z,2.60
2017-12-16T04:44:45.703Z,2.70
2017-12-16T04:47:13.983Z,2.70
2017-12-16T04:49:41.519Z,2.70
2017-12-16T04:52:09.823Z,2.70
2017-12-16T04:54:37.346Z,2.70
2017-12-16T04:57:04.887Z,2.70
2017-12-16T04:59:32.399Z,2.70
2017-12-16T05:01:59.915Z,2.60
2017-12-16T05:04:27.751Z,2.60
2017-12-16T05:06:55.268Z,2.60
2017-12-16T05:09:23.120Z,2.60
2017-12-16T05:11:51.423Z,2.40
2017-12-16T05:14:18.943Z,2.40
2017-12-16T05:16:46.457Z,2.40
2017-12-16T05:19:14.011Z,2.40
2017-12-16T05:21:41.533Z,2.40
2017-12-16T05:24:09.819Z,2.30
2017-12-16T05:26:38.125Z,2.30
2017-12-16T05:29:05.644Z,2.30
2017-12-16T05:31:33.931Z,2.30
2017-12-16T05:34:02.236Z,2.30
2017-12-16T05:36:29.983Z,2.30
2017-12-16T05:38:57.506Z,2.30
2017-12-16T05:41:25.040Z,2.30
2017-12-16T05:43:52.551Z,2.30
2017-12-16T05:46:20.067Z,2.30
2017-12-16T05:48:47.602Z,2.40
2017-12-16T05:51:15.368Z,2.50
2017-12-16T05:53:42.883Z,2.60
2017-12-16T05:56:11.512Z,2.70
2017-12-16T05:58:39.036Z,2.70
2017-12-16T06:01:06.553Z,2.70
2017-12-16T06:03:34.091Z,2.80
2017-12-16T06:06:01.852Z,2.90
2017-12-16T06:08:29.367Z,2.90
2017-12-16T06:10:56.915Z,2.90
2017-12-16T06:13:25.212Z,3.00
2017-12-16T06:15:52.727Z,3.00
2017-12-16T06:18:20.765Z,3.00
2017-12-16T06:20:48.323Z,3.00
2017-12-16T06:23:15.839Z,3.00
2017-12-16T06:25:44.140Z,3.00
2017-12-16T06:28:11.660Z,3.00
2017-12-16T06:30:39.176Z,3.00
2017-12-16T06:33:06.711Z,3.10
2017-12-16T06:35:34.228Z,3.00
2017-12-16T06:38:01.747Z,2.90
2017-12-16T06:40:29.287Z,2.80
2017-12-16T06:42:56.807Z,2.80
2017-12-16T06:45:25.832Z,2.80
2017-12-16T06:47:53.374Z,2.80
2017-12-16T06:50:21.660Z,2.90
2017-12-16T06:52:49.943Z,2.90
2017-12-16T06:55:17.482Z,2.90
2017-12-16T06:57:45.771Z,2.90
2017-12-16T07:00:13.291Z,2.90
2017-12-16T07:02:40.828Z,2.90
2017-12-16T07:05:08.359Z,2.90
2017-12-16T07:07:35.880Z,2.90
2017-12-16T07:10:03.420Z,2.90
2017-12-16T07:12:30.939Z,2.90
2017-12-16T07:14:58.463Z,2.90
2017-12-16T07:17:27.591Z,2.80
2017-12-16T07:19:55.108Z,2.90
2017-12-16T07:22:22.624Z,2.80
2017-12-16T07:24:50.165Z,2.80
2017-12-16T07:27:17.956Z,2.80
2017-12-16T07:29:45.468Z,2.70
2017-12-16T07:32:13.772Z,2.60
2017-12-16T07:34:41.296Z,2.60
2017-12-16T07:37:09.578Z,2.50
2017-12-16T07:39:37.887Z,2.50
2017-12-16T07:42:05.404Z,2.50
2017-12-16T07:44:33.688Z,2.50
2017-12-16T07:47:01.986Z,2.50
2017-12-16T07:49:29.500Z,2.50
2017-12-16T07:51:57.019Z,2.60
2017-12-16T07:54:24.556Z,2.60
2017-12-16T07:56:52.075Z,2.60
2017-12-16T07:59:19.591Z,2.60
2017-12-16T08:01:47.128Z,2.70
2017-12-16T08:04:14.647Z,2.60
2017-12-16T08:06:42.164Z,2.60
2017-12-16T08:09:09.708Z,2.60
2017-12-16T08:11:37.227Z,2.60
2017-12-16T08:14:04.744Z,2.60
2017-12-16T08:16:32.715Z,2.60
2017-12-16T08:19:00.231Z,2.60
2017-12-16T08:21:28.516Z,2.60
2017-12-16T08:23:56.052Z,2.60
2017-12-16T08:26:24.337Z,2.70
2017-12-16T08:28:52.620Z,2.70
2017-12-16T08:31:20.925Z,2.80
2017-12-16T08:33:48.443Z,2.80
2017-12-16T08:36:16.983Z,3.00
2017-12-16T08:38:44.580Z,2.90
2017-12-16T08:41:12.872Z,3.00
2017-12-16T08:43:40.460Z,3.00
2017-12-16T08:46:08.000Z,3.00
2017-12-16T08:48:35.520Z,3.00
2017-12-16T08:51:03.825Z,3.10
2017-12-16T08:53:32.255Z,3.10
2017-12-16T08:55:59.779Z,3.10
2017-12-16T08:58:27.299Z,3.10
2017-12-16T09:00:55.611Z,3.10
2017-12-16T09:03:23.132Z,3.10
2017-12-16T09:05:50.655Z,3.10
2017-12-16T09:08:18.196Z,3.10
2017-12-16T09:10:45.716Z,3.00
2017-12-16T09:13:13.997Z,3.10
2017-12-16T09:15:41.560Z,3.10
2017-12-16T09:18:09.844Z,3.10
2017-12-16T09:20:37.360Z,3.10
2017-12-16T09:23:06.404Z,3.10
2017-12-16T09:25:33.928Z,3.10
2017-12-16T09:28:01.447Z,3.00
2017-12-16T09:30:29.315Z,3.10
2017-12-16T09:32:56.831Z,3.10
2017-12-16T09:35:25.112Z,3.20
2017-12-16T09:37:52.698Z,3.10
2017-12-16T09:40:20.228Z,3.10
2017-12-16T09:42:48.511Z,3.10
2017-12-16T09:45:16.048Z,3.10
2017-12-16T09:47:44.344Z,3.20
2017-12-16T09:50:11.864Z,3.10
2017-12-16T09:52:40.908Z,3.10
2017-12-16T09:55:08.441Z,3.10
2017-12-16T09:57:36.727Z,3.00
2017-12-16T10:00:04.264Z,3.00
2017-12-16T10:02:31.786Z,3.10
2017-12-16T10:04:59.303Z,3.20
2017-12-16T10:07:26.851Z,3.10
2017-12-16T10:09:54.384Z,3.10
2017-12-16T10:12:21.904Z,3.10
2017-12-16T10:14:49.567Z,3.10
2017-12-16T10:17:17.084Z,3.10
2017-12-16T10:19:45.396Z,3.10
2017-12-16T10:22:12.932Z,3.10
2017-12-16T10:24:40.452Z,3.20
2017-12-16T10:27:07.968Z,3.20
2017-12-16T10:29:35.508Z,3.30
2017-12-16T10:32:03.026Z,3.20
2017-12-16T10:34:31.311Z,3.40
2017-12-16T10:36:58.856Z,3.40
2017-12-16T10:39:26.383Z,3.50
2017-12-16T10:41:53.961Z,3.50
2017-12-16T10:44:21.504Z,3.60
2017-12-16T10:46:49.023Z,3.60
2017-12-16T10:49:17.307Z,3.60
2017-12-16T10:51:44.845Z,3.60
2017-12-16T10:54:13.127Z,3.60
2017-12-16T10:56:41.407Z,3.60
2017-12-16T10:59:09.711Z,3.60
2017-12-16T11:01:37.239Z,3.60
2017-12-16T11:04:05.528Z,3.60
2017-12-16T11:06:33.076Z,3.60
2017-12-16T11:09:01.373Z,3.60
2017-12-16T11:11:28.896Z,3.60
2017-12-16T11:13:56.486Z,3.60
2017-12-16T11:16:24.005Z,3.60
2017-12-16T11:18:51.525Z,3.60
2017-12-16T11:21:19.067Z,3.60
2017-12-16T11:23:46.584Z,3.60
2017-12-16T11:26:14.104Z,3.60
2017-12-16T11:28:41.999Z,3.50
2017-12-16T11:31:09.524Z,3.50
2017-12-16T11:33:37.047Z,3.60
2017-12-16T11:36:05.348Z,3.50
2017-12-16T11:38:32.888Z,3.50
2017-12-16T11:41:01.218Z,3.60
2017-12-16T11:43:28.756Z,3.60
2017-12-16T11:45:56.272Z,3.70
2017-12-16T11:48:24.556Z,3.80
2017-12-16T11:50:52.128Z,3.80
2017-12-16T11:53:19.651Z,3.80
2017-12-16T11:55:47.171Z,3.80
2017-12-16T11:58:14.704Z,3.80
2017-12-16T12:00:42.225Z,3.90
2017-12-16T12:03:09.753Z,4.00
2017-12-16T12:05:37.297Z,4.10
2017-12-16T12:08:04.815Z,4.10
2017-12-16T12:10:33.104Z,4.30
2017-12-16T12:13:00.640Z,4.30
2017-12-16T12:15:28.155Z,4.20
2017-12-16T12:17:55.672Z,4.30
2017-12-16T12:20:23.977Z,4.30
2017-12-16T12:22:51.497Z,4.30
2017-12-16T12:25:19.793Z,4.40
2017-12-16T12:27:47.334Z,4.40
2017-12-16T12:30:15.615Z,4.20
2017-12-16T12:32:43.928Z,4.20
2017-12-16T12:35:11.471Z,4.20
2017-12-16T12:37:38.988Z,4.20
2017-12-16T12:40:06.511Z,4.30
2017-12-16T12:42:34.052Z,4.30
2017-12-16T12:45:01.567Z,4.20
2017-12-16T12:47:29.864Z,4.20
2017-12-16T12:49:58.172Z,4.20
2017-12-16T12:52:25.690Z,4.10
2017-12-16T12:54:53.976Z,4.00
2017-12-16T12:57:21.520Z,4.00
2017-12-16T12:59:49.816Z,3.80
2017-12-16T13:02:17.329Z,3.80
2017-12-16T13:04:44.866Z,3.90
2017-12-16T13:07:12.388Z,3.90
2017-12-16T13:09:39.913Z,3.80
2017-12-16T13:12:07.453Z,3.70
2017-12-16T13:14:34.976Z,3.80
2017-12-16T13:17:02.496Z,4.10
2017-12-16T13:19:30.045Z,4.50
2017-12-16T13:21:57.571Z,4.90
2017-12-16T13:24:25.096Z,5.20
2017-12-16T13:26:52.643Z,5.40
2017-12-16T13:29:20.924Z,5.70
2017-12-16T13:31:49.219Z,5.60
2017-12-16T13:34:17.011Z,5.60
2017-12-16T13:36:44.542Z,5.60
2017-12-16T13:39:12.068Z,5.30
2017-12-16T13:41:40.612Z,5.20
2017-12-16T13:44:08.136Z,5.20
2017-12-16T13:46:35.760Z,5.00
2017-12-16T13:49:04.071Z,5.00
2017-12-16T13:51:31.592Z,5.00
2017-12-16T13:53:59.139Z,5.10
2017-12-16T13:56:26.688Z,5.00
2017-12-16T13:58:54.209Z,5.00
2017-12-16T14:01:21.740Z,4.80
2017-12-16T14:03:50.048Z,4.60
2017-12-16T14:06:17.563Z,4.60
2017-12-16T14:08:45.872Z,4.40
2017-12-16T14:11:13.411Z,4.40
2017-12-16T14:13:41.697Z,4.30
2017-12-16T14:16:09.981Z,4.30
2017-12-16T14:18:37.995Z,4.30
2017-12-16T14:21:05.540Z,4.20
2017-12-16T14:23:33.055Z,4.10
2017-12-16T14:26:01.392Z,4.10
2017-12-16T14:28:29.244Z,4.10
2017-12-16T14:30:56.844Z,4.10
2017-12-16T14:33:24.385Z,4.10
2017-12-16T14:35:52.667Z,4.00
2017-12-16T14:38:20.192Z,4.00
2017-12-16T14:40:47.917Z,4.00
2017-12-16T14:43:16.200Z,4.00
2017-12-16T14:45:43.724Z,4.00
2017-12-16T14:48:11.264Z,4.00
2017-12-16T14:50:38.818Z,3.90
2017-12-16T14:53:06.351Z,3.80
2017-12-16T14:55:34.242Z,3.70
2017-12-16T14:58:01.772Z,3.70
2017-12-16T15:00:29.296Z,3.70
2017-12-16T15:02:57.601Z,3.60
2017-12-16T15:05:25.119Z,3.50
2017-12-16T15:07:52.644Z,3.40
2017-12-16T15:10:20.186Z,3.30
2017-12-16T15:12:47.705Z,3.30
2017-12-16T15:15:15.987Z,3.10
2017-12-16T15:17:44.287Z,3.10
2017-12-16T15:20:11.808Z,3.10
2017-12-16T15:22:39.336Z,3.10
2017-12-16T15:25:07.204Z,3.00
2017-12-16T15:27:34.735Z,2.90
2017-12-16T15:30:02.252Z,2.90
2017-12-16T15:32:29.788Z,2.90
2017-12-16T15:34:57.308Z,3.00
2017-12-16T15:37:24.826Z,3.00
2017-12-16T15:39:53.371Z,3.10
2017-12-16T15:42:20.918Z,3.10
2017-12-16T15:44:48.483Z,3.20
2017-12-16T15:47:16.036Z,3.20
2017-12-16T15:49:43.559Z,3.20
2017-12-16T15:52:11.844Z,3.10
2017-12-16T15:54:40.147Z,3.10
2017-12-16T15:57:07.941Z,3.10
2017-12-16T15:59:38.232Z,3.10
2017-12-16T16:02:06.295Z,3.00
2017-12-16T16:04:35.437Z,3.10
2017-12-16T16:07:03.874Z,3.00
2017-12-16T16:09:31.416Z,3.00
2017-12-16T16:11:58.932Z,2.90
2017-12-16T16:14:26.449Z,2.80
2017-12-16T16:16:53.988Z,2.70
2017-12-16T16:19:22.268Z,2.60
2017-12-16T16:21:49.792Z,2.60
2017-12-16T16:24:17.328Z,2.60
2017-12-16T16:26:44.844Z,2.60
2017-12-16T16:29:12.382Z,2.60
2017-12-16T16:31:39.940Z,2.60
2017-12-16T16:34:08.227Z,2.70
2017-12-16T16:36:35.748Z,2.70
2017-12-16T16:39:03.288Z,2.70
2017-12-16T16:41:30.807Z,2.70
2017-12-16T16:43:58.324Z,2.70
2017-12-16T16:46:25.868Z,2.70
2017-12-16T16:48:53.388Z,2.70
2017-12-16T16:51:21.183Z,2.80
2017-12-16T16:53:48.721Z,2.80
2017-12-16T16:56:16.244Z,2.90
2017-12-16T16:58:44.531Z,2.90
2017-12-16T17:01:12.832Z,2.90
2017-12-16T17:03:40.348Z,2.90
2017-12-16T17:06:07.864Z,2.90
2017-12-16T17:08:35.399Z,2.90
2017-12-16T17:11:02.920Z,2.90
2017-12-16T17:13:30.752Z,2.90
2017-12-16T17:15:58.284Z,2.90
2017-12-16T17:18:25.804Z,2.90
2017-12-16T17:20:53.319Z,3.00
2017-12-16T17:23:20.860Z,3.00
2017-12-16T17:25:48.376Z,3.00
2017-12-16T17:28:15.888Z,3.00
2017-12-16T17:30:43.427Z,3.00
2017-12-16T17:33:10.942Z,3.00
2017-12-16T17:35:38.461Z,3.00
2017-12-16T17:38:05.996Z,2.90
2017-12-16T17:40:33.517Z,2.90
2017-12-16T17:43:01.033Z,2.90
2017-12-16T17:45:28.567Z,2.90
2017-12-16T17:47:56.091Z,2.90
2017-12-16T17:50:23.616Z,2.90
2017-12-16T17:52:51.488Z,2.90
2017-12-16T17:55:19.055Z,2.90
2017-12-16T17:57:46.604Z,2.90
2017-12-16T18:00:14.136Z,2.90
2017-12-16T18:02:41.661Z,2.90
2017-12-16T18:05:09.175Z,3.00
2017-12-16T18:07:36.712Z,3.00
2017-12-16T18:10:04.231Z,3.00
2017-12-16T18:12:31.749Z,2.90
2017-12-16T18:14:59.305Z,3.00
2017-12-16T18:17:26.823Z,3.00
2017-12-16T18:19:55.113Z,3.00
2017-12-16T18:22:22.654Z,3.00
2017-12-16T18:24:50.944Z,3.00
2017-12-16T18:27:19.231Z,3.10
2017-12-16T18:29:46.769Z,3.00
2017-12-16T18:32:15.058Z,3.00
2017-12-16T18:34:42.581Z,3.00
2017-12-16T18:37:10.912Z,3.00
2017-12-16T18:39:38.432Z,3.00
2017-12-16T18:42:06.776Z,3.10
2017-12-16T18:44:34.317Z,3.00
2017-12-16T18:47:01.835Z,3.00
2017-12-16T18:49:30.116Z,3.00
2017-12-16T18:51:58.421Z,3.00
2017-12-16T18:54:25.936Z,3.00
2017-12-16T18:56:54.230Z,3.00
2017-12-16T18:59:21.773Z,3.00
2017-12-16T19:01:50.056Z,3.00
2017-12-16T19:04:19.492Z,3.00
2017-12-16T19:06:47.125Z,2.90
2017-12-16T19:09:15.408Z,3.00
2017-12-16T19:11:42.927Z,2.90
2017-12-16T19:14:10.475Z,3.00
2017-12-16T19:16:38.001Z,3.00
2017-12-16T19:19:05.783Z,3.00
2017-12-16T19:21:33.324Z,3.00
2017-12-16T19:24:00.854Z,3.00
2017-12-16T19:26:29.147Z,3.00
2017-12-16T19:28:56.695Z,3.00
2017-12-16T19:31:24.236Z,3.00
2017-12-16T19:33:52.527Z,3.00
2017-12-16T19:36:20.848Z,3.00
2017-12-16T19:38:48.364Z,3.00
2017-12-16T19:41:16.168Z,3.00
2017-12-16T19:43:43.704Z,3.00
2017-12-16T19:46:11.231Z,3.00
2017-12-16T19:48:39.512Z,3.10
2017-12-16T19:51:07.826Z,3.00
2017-12-16T19:53:35.349Z,3.00
2017-12-16T19:56:03.636Z,3.00
2017-12-16T19:58:31.171Z,3.00
2017-12-16T20:00:59.711Z,3.00
2017-12-16T20:03:27.228Z,3.00
2017-12-16T20:05:55.533Z,3.00
2017-12-16T20:08:23.051Z,3.00
2017-12-16T20:10:51.350Z,2.90
2017-12-16T20:13:18.901Z,2.90
2017-12-16T20:15:46.419Z,2.90
2017-12-16T20:18:13.937Z,2.90
2017-12-16T20:20:41.472Z,2.80
2017-12-16T20:23:09.759Z,2.80
2017-12-16T20:25:37.276Z,2.80
2017-12-16T20:28:05.173Z,2.80
2017-12-16T20:30:33.416Z,2.80
2017-12-16T20:33:00.937Z,2.80
2017-12-16T20:35:28.476Z,2.80
2017-12-16T20:37:55.996Z,2.70
2017-12-16T20:40:23.516Z,2.80
2017-12-16T20:42:51.061Z,2.70
2017-12-16T20:45:18.580Z,2.60
2017-12-16T20:47:46.867Z,2.60
2017-12-16T20:50:15.173Z,2.60
2017-12-16T20:52:42.696Z,2.60
2017-12-16T20:55:11.115Z,2.60
2017-12-16T20:57:38.651Z,2.60
2017-12-16T21:00:06.175Z,2.70
2017-12-16T21:02:33.700Z,2.60
2017-12-16T21:05:01.240Z,2.60
2017-12-16T21:07:29.024Z,2.60
2017-12-16T21:09:56.543Z,2.60
2017-12-16T21:12:24.087Z,2.60
2017-12-16T21:14:52.376Z,2.60
2017-12-16T21:17:20.656Z,2.70
2017-12-16T21:19:48.228Z,2.70
2017-12-16T21:22:15.752Z,2.70
2017-12-16T21:24:44.073Z,2.60
2017-12-16T21:27:11.612Z,2.60
2017-12-16T21:29:39.131Z,2.60
2017-12-16T21:32:06.651Z,2.60
2017-12-16T21:34:34.200Z,2.60
2017-12-16T21:37:01.715Z,2.60
2017-12-16T21:39:29.240Z,2.60
2017-12-16T21:41:56.776Z,2.60
2017-12-16T21:44:24.296Z,2.60
2017-12-16T21:46:52.580Z,2.60
2017-12-16T21:49:20.915Z,2.60
2017-12-16T21:51:48.428Z,2.50
2017-12-16T21:54:15.939Z,2.50
2017-12-16T21:56:43.480Z,2.50
2017-12-16T21:59:10.995Z,2.50
2017-12-16T22:01:38.540Z,2.40
2017-12-16T22:04:06.847Z,2.50
2017-12-16T22:06:34.378Z,2.50
2017-12-16T22:09:02.664Z,2.50
2017-12-16T22:11:30.968Z,2.40
2017-12-16T22:13:58.488Z,2.40
2017-12-16T22:16:26.776Z,2.40
2017-12-16T22:18:54.319Z,2.40
2017-12-16T22:21:22.604Z,2.50
2017-12-16T22:23:50.884Z,2.50
2017-12-16T22:26:19.184Z,2.60
2017-12-16T22:28:46.712Z,2.50
2017-12-16T22:31:14.995Z,2.60
2017-12-16T22:33:43.305Z,2.60
2017-12-16T22:36:12.196Z,2.50
2017-12-16T22:38:39.715Z,2.60
2017-12-16T22:41:08.021Z,2.60
2017-12-16T22:43:35.539Z,2.60
2017-12-16T22:46:03.056Z,2.60
2017-12-16T22:48:30.601Z,2.50
2017-12-16T22:50:58.124Z,2.50
2017-12-16T22:53:26.656Z,2.50
2017-12-16T22:55:54.195Z,2.50
2017-12-16T22:58:21.712Z,2.50
2017-12-16T23:00:49.228Z,2.50
2017-12-16T23:03:16.763Z,2.50
2017-12-16T23:05:44.280Z,2.50
2017-12-16T23:08:11.800Z,2.50
2017-12-16T23:10:39.332Z,2.50
2017-12-16T23:13:06.867Z,2.50
2017-12-16T23:15:35.156Z,2.60
2017-12-16T23:18:03.460Z,2.50
2017-12-16T23:20:30.976Z,2.50
2017-12-16T23:22:59.268Z,2.50
2017-12-16T23:25:26.804Z,2.50
2017-12-16T23:27:55.133Z,2.50
2017-12-16T23:30:22.907Z,2.50
2017-12-16T23:32:50.448Z,2.50
2017-12-16T23:35:17.968Z,2.50
2017-12-16T23:37:46.251Z,2.60
2017-12-16T23:40:14.555Z,2.60
2017-12-16T23:42:42.068Z,2.50
2017-12-16T23:45:09.904Z,2.60
2017-12-16T23:47:37.445Z,2.60
2017-12-16T23:50:04.960Z,2.60
2017-12-16T23:52:33.252Z,2.60
2017-12-16T23:55:01.060Z,2.60
2017-12-16T23:57:28.579Z,2.60
2017-12-16T23:59:56.860Z,2.60
